Time;durP1;ratioP1;P1;durP2;ratioP2;P2;SDS_P1;SDS_P2;PMS_P1;PMS_P2;Temp;Humidity;BMP_temperature;BMP_pressure;BME280_temperature;BME280_humidity;BME280_pressure;Samples;Min_cycle;Max_cycle;Signal;HPM_P1;HPM_P2
2022/02/28 00:00:52;;;;;;;;;;;8.20;99.90;;;;;;4955786;28;19910;-88
2022/02/28 00:03:18;;;;;;;;;;;8.10;99.90;;;;;;4969871;28;19934;-87
2022/02/28 00:05:43;;;;;;;;;;;8.20;99.90;;;;;;4952918;28;20007;-87
2022/02/28 00:08:09;;;;;;;;;;;8.20;99.90;;;;;;4937033;28;20379;-95
2022/02/28 00:10:34;;;;;;;;;;;8.10;99.90;;;;;;4956163;28;19926;-88
2022/02/28 00:13:00;;;;;;;;;;;8.10;99.90;;;;;;4948295;28;19911;-87
2022/02/28 00:15:25;;;;;;;;;;;8.10;99.90;;;;;;4945237;28;19910;-87
2022/02/28 00:17:51;;;;;;;;;;;8.10;99.90;;;;;;4965946;28;19916;-89
2022/02/28 00:20:17;;;;;;;;;;;8.00;99.90;;;;;;4936663;29;20005;-87
2022/02/28 00:22:43;;;;;;;;;;;7.90;99.90;;;;;;4943726;28;20367;-94
2022/02/28 00:25:09;;;;;;;;;;;8.10;99.90;;;;;;4942712;28;19910;-86
2022/02/28 00:27:35;;;;;;;;;;;8.10;99.90;;;;;;4954367;28;19914;-87
2022/02/28 00:30:01;;;;;;;;;;;8.10;99.90;;;;;;4960287;28;19998;-87
2022/02/28 00:32:26;;;;;;;;;;;8.30;99.90;;;;;;4955087;28;19914;-87
2022/02/28 00:34:52;;;;;;;;;;;8.50;99.90;;;;;;4954286;28;19923;-87
2022/02/28 00:37:18;;;;;;;;;;;8.60;99.90;;;;;;4953699;28;19917;-87
2022/02/28 00:39:44;;;;;;;;;;;8.60;99.90;;;;;;4953925;28;19937;-91
2022/02/28 00:42:10;;;;;;;;;;;8.60;99.90;;;;;;4972786;28;19910;-87
2022/02/28 00:44:36;;;;;;;;;;;8.70;99.90;;;;;;4972450;28;20099;-93
2022/02/28 00:47:01;;;;;;;;;;;8.70;99.90;;;;;;4966934;28;19910;-94
2022/02/28 00:49:27;;;;;;;;;;;8.80;99.90;;;;;;4962488;28;20371;-93
2022/02/28 00:51:52;;;;;;;;;;;8.80;99.90;;;;;;4957195;28;19921;-87
2022/02/28 00:54:18;;;;;;;;;;;8.90;99.90;;;;;;4958471;28;19997;-87
2022/02/28 00:56:44;;;;;;;;;;;8.90;99.90;;;;;;4972936;28;19968;-95
2022/02/28 00:59:10;;;;;;;;;;;9.00;99.90;;;;;;4946012;29;19910;-87
2022/02/28 01:01:36;;;;;;;;;;;9.00;99.90;;;;;;4953685;28;19917;-87
2022/02/28 01:04:02;;;;;;;;;;;9.10;99.90;;;;;;4952425;28;20009;-89
2022/02/28 01:06:28;;;;;;;;;;;9.10;99.90;;;;;;4942764;28;19911;-87
2022/02/28 01:08:53;;;;;;;;;;;9.10;99.90;;;;;;4967316;28;19910;-88
2022/02/28 01:11:19;;;;;;;;;;;9.10;99.90;;;;;;4947553;28;19924;-94
2022/02/28 01:13:45;;;;;;;;;;;9.10;99.90;;;;;;4975106;28;20382;-87
2022/02/28 01:16:10;;;;;;;;;;;9.10;99.90;;;;;;4956313;28;19912;-91
2022/02/28 01:18:36;;;;;;;;;;;9.10;99.90;;;;;;4946507;28;19941;-93
2022/02/28 01:21:01;;;;;;;;;;;9.10;99.90;;;;;;4946703;28;20427;-87
2022/02/28 01:23:27;;;;;;;;;;;9.10;99.90;;;;;;4952628;28;19910;-88
2022/02/28 01:25:52;;;;;;;;;;;9.10;99.90;;;;;;4958523;28;20012;-87
2022/02/28 01:28:18;;;;;;;;;;;9.20;99.90;;;;;;4970004;28;19915;-87
2022/02/28 01:30:44;;;;;;;;;;;9.10;99.90;;;;;;4970463;28;19926;-88
2022/02/28 01:33:09;;;;;;;;;;;9.10;99.90;;;;;;4957426;28;19970;-87
2022/02/28 01:35:35;;;;;;;;;;;9.20;99.90;;;;;;4957132;28;19927;-89
2022/02/28 01:38:00;;;;;;;;;;;9.20;99.90;;;;;;4960312;28;19910;-88
2022/02/28 01:40:26;;;;;;;;;;;9.20;99.90;;;;;;4976439;28;19933;-88
2022/02/28 01:42:51;;;;;;;;;;;9.20;99.90;;;;;;4958465;28;19910;-88
2022/02/28 01:45:21;;;;;;;;;;;9.20;99.90;;;;;;4971701;28;19917;-88
2022/02/28 01:47:48;;;;;;;;;;;9.20;99.90;;;;;;4966953;28;19910;-89
2022/02/28 01:50:13;;;;;;;;;;;9.20;99.90;;;;;;4976411;28;19918;-88
2022/02/28 01:52:39;;;;;;;;;;;9.20;99.90;;;;;;4974564;28;20001;-88
2022/02/28 01:55:07;;;;;;;;;;;9.20;99.90;;;;;;4966823;28;19914;-86
2022/02/28 01:57:32;;;;;;;;;;;9.20;99.90;;;;;;4964288;28;20383;-87
2022/02/28 01:59:58;;;;;;;;;;;9.20;99.90;;;;;;4964125;28;19946;-92
2022/02/28 02:02:23;;;;;;;;;;;9.20;99.90;;;;;;4958021;28;20071;-96
2022/02/28 02:04:49;;;;;;;;;;;9.20;99.90;;;;;;4953216;28;19932;-88
2022/02/28 02:07:15;;;;;;;;;;;9.20;99.90;;;;;;4960131;28;19917;-94
2022/02/28 02:09:40;;;;;;;;;;;9.20;99.90;;;;;;4968479;28;19911;-88
2022/02/28 02:12:06;;;;;;;;;;;9.20;99.90;;;;;;4946101;28;20373;-88
2022/02/28 02:14:35;;;;;;;;;;;9.20;99.90;;;;;;4964050;28;20291;-96
2022/02/28 02:17:00;;;;;;;;;;;9.10;99.90;;;;;;4975465;28;19965;-88
2022/02/28 02:19:26;;;;;;;;;;;9.10;99.90;;;;;;4968654;28;20001;-88
2022/02/28 02:21:51;;;;;;;;;;;9.10;99.90;;;;;;4969454;28;19940;-88
2022/02/28 02:24:17;;;;;;;;;;;9.10;99.90;;;;;;4975731;28;19914;-88
2022/02/28 02:26:43;;;;;;;;;;;9.00;99.90;;;;;;4969407;28;19934;-89
2022/02/28 02:29:08;;;;;;;;;;;9.00;99.90;;;;;;4963417;28;19918;-88
2022/02/28 02:31:34;;;;;;;;;;;8.90;99.90;;;;;;4969367;28;19930;-90
2022/02/28 02:33:59;;;;;;;;;;;8.90;99.90;;;;;;4944924;29;19923;-89
2022/02/28 02:36:25;;;;;;;;;;;8.80;99.90;;;;;;4924552;29;19938;-89
2022/02/28 02:38:52;;;;;;;;;;;8.80;99.90;;;;;;4927847;29;19922;-89
2022/02/28 02:41:18;;;;;;;;;;;8.70;99.90;;;;;;4940089;29;19997;-95
2022/02/28 02:43:45;;;;;;;;;;;8.80;99.90;;;;;;4928482;29;20407;-96
2022/02/28 02:46:10;;;;;;;;;;;8.80;99.90;;;;;;4934374;29;20094;-96
2022/02/28 02:48:36;;;;;;;;;;;8.60;99.90;;;;;;4929225;29;20037;-91
2022/02/28 02:51:01;;;;;;;;;;;8.60;99.90;;;;;;4924975;29;19915;-89
2022/02/28 02:53:27;;;;;;;;;;;8.60;99.90;;;;;;4934206;29;20022;-89
2022/02/28 02:55:52;;;;;;;;;;;8.60;99.90;;;;;;4928624;29;19915;-94
2022/02/28 02:58:18;;;;;;;;;;;8.40;99.90;;;;;;4943654;29;19918;-91
2022/02/28 03:00:45;;;;;;;;;;;8.40;99.90;;;;;;4938011;29;19954;-90
2022/02/28 03:03:11;;;;;;;;;;;8.50;99.90;;;;;;4926571;29;19934;-90
2022/02/28 03:05:37;;;;;;;;;;;8.40;99.90;;;;;;4943561;29;19978;-89
2022/02/28 03:08:06;;;;;;;;;;;8.40;99.90;;;;;;4933821;29;19947;-89
2022/02/28 03:10:31;;;;;;;;;;;8.40;99.90;;;;;;4935802;29;19992;-88
2022/02/28 03:12:57;;;;;;;;;;;8.40;99.90;;;;;;4927326;29;19915;-89
2022/02/28 03:15:23;;;;;;;;;;;8.40;99.90;;;;;;4924903;29;19918;-88
2022/02/28 03:17:48;;;;;;;;;;;8.40;99.90;;;;;;4940990;29;19918;-90
2022/02/28 03:20:14;;;;;;;;;;;8.40;99.90;;;;;;4926460;29;20344;-89
2022/02/28 03:22:39;;;;;;;;;;;8.40;99.90;;;;;;4955953;29;19982;-89
2022/02/28 03:25:05;;;;;;;;;;;8.40;99.90;;;;;;4954652;29;19911;-88
2022/02/28 03:27:31;;;;;;;;;;;8.30;99.90;;;;;;4936665;29;19920;-89
2022/02/28 03:29:57;;;;;;;;;;;8.30;99.90;;;;;;4936155;29;19915;-90
2022/02/28 03:32:22;;;;;;;;;;;8.30;99.90;;;;;;4936313;29;19911;-89
2022/02/28 03:34:48;;;;;;;;;;;8.30;99.90;;;;;;4947459;29;19958;-95
2022/02/28 03:37:14;;;;;;;;;;;8.30;99.90;;;;;;4956595;28;19911;-89
2022/02/28 03:39:39;;;;;;;;;;;8.40;99.90;;;;;;4959151;28;19910;-89
2022/02/28 03:42:05;;;;;;;;;;;8.40;99.90;;;;;;4971170;28;19927;-90
2022/02/28 03:44:31;;;;;;;;;;;8.30;99.90;;;;;;4955278;28;19914;-90
2022/02/28 03:46:56;;;;;;;;;;;8.40;99.90;;;;;;4965148;28;19918;-92
2022/02/28 03:49:22;;;;;;;;;;;8.40;99.90;;;;;;4966120;28;19941;-89
2022/02/28 03:51:47;;;;;;;;;;;8.40;99.90;;;;;;4965770;28;19969;-90
2022/02/28 03:54:13;;;;;;;;;;;8.40;99.90;;;;;;4964952;28;19910;-89
2022/02/28 03:56:39;;;;;;;;;;;8.40;99.90;;;;;;4963394;28;19965;-88
2022/02/28 03:59:05;;;;;;;;;;;8.30;99.90;;;;;;4943173;28;20009;-88
2022/02/28 04:01:31;;;;;;;;;;;8.30;99.90;;;;;;4959639;28;19956;-96
2022/02/28 04:03:57;;;;;;;;;;;8.30;99.90;;;;;;4973629;28;19910;-95
2022/02/28 04:06:22;;;;;;;;;;;8.40;99.90;;;;;;4972946;28;19916;-88
2022/02/28 04:08:48;;;;;;;;;;;8.40;99.90;;;;;;4960187;28;19936;-93
2022/02/28 04:11:14;;;;;;;;;;;8.40;99.90;;;;;;4955401;28;19937;-89
2022/02/28 04:13:40;;;;;;;;;;;8.40;99.90;;;;;;4972285;28;19965;-96
2022/02/28 04:16:05;;;;;;;;;;;8.40;99.90;;;;;;4968985;28;20268;-90
2022/02/28 04:18:31;;;;;;;;;;;8.40;99.90;;;;;;4958631;28;19921;-89
2022/02/28 04:20:57;;;;;;;;;;;8.50;99.90;;;;;;4957722;28;19942;-89
2022/02/28 04:23:22;;;;;;;;;;;8.50;99.90;;;;;;4971332;28;19922;-89
2022/02/28 04:25:48;;;;;;;;;;;8.40;99.90;;;;;;4974114;28;19910;-89
2022/02/28 04:28:13;;;;;;;;;;;8.50;99.90;;;;;;4963526;28;20434;-94
2022/02/28 04:30:39;;;;;;;;;;;8.60;99.90;;;;;;4974387;28;19957;-89
2022/02/28 04:33:04;;;;;;;;;;;8.60;99.90;;;;;;4969414;28;19980;-89
2022/02/28 04:35:30;;;;;;;;;;;8.50;99.90;;;;;;4972391;28;19922;-90
2022/02/28 04:37:56;;;;;;;;;;;8.60;99.90;;;;;;4965251;28;19997;-89
2022/02/28 04:40:21;;;;;;;;;;;8.60;99.90;;;;;;4954401;28;19945;-89
2022/02/28 04:42:47;;;;;;;;;;;8.60;99.90;;;;;;4956522;28;19910;-89
2022/02/28 04:45:12;;;;;;;;;;;8.70;99.90;;;;;;4962292;28;20411;-88
2022/02/28 04:47:38;;;;;;;;;;;8.70;99.90;;;;;;4956480;28;19911;-96
2022/02/28 04:50:04;;;;;;;;;;;8.60;99.90;;;;;;4972350;28;19920;-88
2022/02/28 04:52:29;;;;;;;;;;;8.60;99.90;;;;;;4978304;28;19914;-89
2022/02/28 04:54:55;;;;;;;;;;;8.60;99.90;;;;;;4953325;28;20291;-89
2022/02/28 04:57:21;;;;;;;;;;;8.70;99.90;;;;;;4951828;28;20273;-90
2022/02/28 04:59:46;;;;;;;;;;;8.70;99.90;;;;;;4952313;28;19993;-89
2022/02/28 05:02:12;;;;;;;;;;;8.70;99.90;;;;;;4960616;28;19917;-91
2022/02/28 05:04:38;;;;;;;;;;;8.80;99.90;;;;;;4958701;28;19905;-90
2022/02/28 05:07:03;;;;;;;;;;;8.80;99.90;;;;;;4970146;28;19921;-90
2022/02/28 05:09:29;;;;;;;;;;;8.70;99.90;;;;;;4971188;28;20379;-89
2022/02/28 05:11:54;;;;;;;;;;;8.70;99.90;;;;;;4960725;28;19926;-90
2022/02/28 05:14:22;;;;;;;;;;;8.70;99.90;;;;;;4977697;28;19945;-90
2022/02/28 05:16:47;;;;;;;;;;;8.70;99.90;;;;;;4964904;28;20393;-90
2022/02/28 05:19:13;;;;;;;;;;;8.70;99.90;;;;;;4970760;28;19906;-89
2022/02/28 05:21:38;;;;;;;;;;;8.70;99.90;;;;;;4976129;28;19898;-91
2022/02/28 05:24:04;;;;;;;;;;;8.70;99.90;;;;;;4986522;28;19925;-90
2022/02/28 05:26:30;;;;;;;;;;;8.70;99.90;;;;;;4988041;28;19978;-90
2022/02/28 05:28:55;;;;;;;;;;;8.70;99.90;;;;;;4948111;28;19954;-91
2022/02/28 05:31:21;;;;;;;;;;;8.70;99.90;;;;;;4974800;28;19922;-91
2022/02/28 05:33:46;;;;;;;;;;;8.70;99.90;;;;;;4984523;28;20512;-90
2022/02/28 05:36:12;;;;;;;;;;;8.60;99.90;;;;;;4986383;28;19903;-91
2022/02/28 05:38:42;;;;;;;;;;;8.60;99.90;;;;;;4988561;28;19898;-91
2022/02/28 05:41:25;;;;;;;;;;;8.70;99.90;;;;;;4976095;28;19950;-90
2022/02/28 05:43:50;;;;;;;;;;;8.70;99.90;;;;;;4976881;28;20291;-91
2022/02/28 05:46:16;;;;;;;;;;;8.70;99.90;;;;;;4960881;28;19915;-91
2022/02/28 05:48:42;;;;;;;;;;;8.60;99.90;;;;;;4952100;28;19898;-91
2022/02/28 05:51:07;;;;;;;;;;;8.70;99.90;;;;;;4970840;28;19922;-90
2022/02/28 05:53:36;;;;;;;;;;;8.70;99.90;;;;;;4959077;28;19899;-90
2022/02/28 05:56:02;;;;;;;;;;;8.70;99.90;;;;;;4952120;28;19899;-91
2022/02/28 05:58:27;;;;;;;;;;;8.70;99.90;;;;;;4958134;28;20304;-90
2022/02/28 06:00:53;;;;;;;;;;;8.70;99.90;;;;;;4971131;28;19953;-90
2022/02/28 06:03:19;;;;;;;;;;;8.70;99.90;;;;;;4962696;28;19914;-90
2022/02/28 06:05:44;;;;;;;;;;;8.70;99.90;;;;;;4970692;28;20021;-91
2022/02/28 06:08:10;;;;;;;;;;;8.60;99.90;;;;;;4960509;28;19899;-90
2022/02/28 06:10:35;;;;;;;;;;;8.60;99.90;;;;;;4968850;28;20414;-90
2022/02/28 06:13:01;;;;;;;;;;;8.60;99.90;;;;;;4970396;28;20458;-90
2022/02/28 06:15:27;;;;;;;;;;;8.50;99.90;;;;;;4950062;29;19922;-91
2022/02/28 06:17:52;;;;;;;;;;;8.50;99.90;;;;;;4946172;28;19915;-89
2022/02/28 06:20:18;;;;;;;;;;;8.50;99.90;;;;;;4954756;28;19917;-90
2022/02/28 06:22:48;;;;;;;;;;;8.40;99.90;;;;;;4982596;28;19933;-89
2022/02/28 06:25:13;;;;;;;;;;;8.40;99.90;;;;;;4973354;28;20013;-90
2022/02/28 06:27:39;;;;;;;;;;;8.40;99.90;;;;;;4949753;28;20143;-89
2022/02/28 06:30:05;;;;;;;;;;;8.40;99.90;;;;;;4946135;28;19993;-87
2022/02/28 06:32:30;;;;;;;;;;;8.40;99.90;;;;;;4948686;28;19915;-87
2022/02/28 06:34:56;;;;;;;;;;;8.40;99.90;;;;;;4958728;28;19938;-87
2022/02/28 06:37:21;;;;;;;;;;;8.30;99.90;;;;;;4958699;28;20363;-87
2022/02/28 06:39:47;;;;;;;;;;;8.30;99.90;;;;;;4964237;28;20415;-87
2022/02/28 06:42:13;;;;;;;;;;;8.30;99.90;;;;;;4955134;28;19934;-87
2022/02/28 06:44:38;;;;;;;;;;;8.30;99.90;;;;;;4959780;28;20391;-87
2022/02/28 06:47:04;;;;;;;;;;;8.30;99.90;;;;;;4956139;28;20195;-87
2022/02/28 06:49:30;;;;;;;;;;;8.30;99.90;;;;;;4966004;28;20005;-86
2022/02/28 06:51:55;;;;;;;;;;;8.30;99.90;;;;;;4965488;28;19933;-87
2022/02/28 06:54:21;;;;;;;;;;;8.30;99.90;;;;;;4937559;29;19910;-87
2022/02/28 06:56:46;;;;;;;;;;;8.30;99.90;;;;;;4955814;28;20009;-87
2022/02/28 06:59:12;;;;;;;;;;;8.20;99.90;;;;;;4973136;28;20299;-87
2022/02/28 07:01:39;;;;;;;;;;;8.10;99.90;;;;;;4955966;28;19914;-87
2022/02/28 07:04:07;;;;;;;;;;;8.10;99.90;;;;;;4955986;28;19925;-88
2022/02/28 07:06:33;;;;;;;;;;;8.00;99.90;;;;;;4955504;28;19910;-87
2022/02/28 07:08:59;;;;;;;;;;;8.00;99.90;;;;;;4973354;28;19910;-87
2022/02/28 07:11:25;;;;;;;;;;;7.90;99.90;;;;;;4971607;28;19922;-87
2022/02/28 07:13:51;;;;;;;;;;;8.00;99.90;;;;;;4972798;28;19914;-87
2022/02/28 07:16:17;;;;;;;;;;;8.00;99.90;;;;;;4973107;28;19910;-87
2022/02/28 07:18:42;;;;;;;;;;;8.10;99.90;;;;;;4973069;28;19917;-87
2022/02/28 07:21:08;;;;;;;;;;;8.10;99.90;;;;;;4964458;28;19914;-87
2022/02/28 07:23:34;;;;;;;;;;;8.10;99.90;;;;;;4954707;28;19949;-87
2022/02/28 07:25:59;;;;;;;;;;;8.10;99.90;;;;;;4960609;28;19911;-88
2022/02/28 07:28:25;;;;;;;;;;;8.10;99.90;;;;;;4972670;28;20022;-88
2022/02/28 07:30:50;;;;;;;;;;;8.20;99.90;;;;;;4972977;28;20058;-88
2022/02/28 07:33:16;;;;;;;;;;;8.20;99.90;;;;;;4972838;28;20008;-86
2022/02/28 07:35:42;;;;;;;;;;;8.20;99.90;;;;;;4971287;28;20395;-87
2022/02/28 07:38:07;;;;;;;;;;;8.20;99.90;;;;;;4970781;28;19926;-86
2022/02/28 07:40:33;;;;;;;;;;;8.20;99.90;;;;;;4953943;28;19911;-87
2022/02/28 07:42:58;;;;;;;;;;;8.30;99.90;;;;;;4970138;28;19918;-87
2022/02/28 07:45:24;;;;;;;;;;;8.40;99.90;;;;;;4970065;28;20013;-87
2022/02/28 07:47:50;;;;;;;;;;;8.40;99.90;;;;;;4971223;28;19917;-87
2022/02/28 07:50:15;;;;;;;;;;;8.50;99.90;;;;;;4972024;28;19922;-86
2022/02/28 07:52:41;;;;;;;;;;;8.60;99.90;;;;;;4972470;28;19910;-88
2022/02/28 07:55:07;;;;;;;;;;;8.60;99.90;;;;;;4969195;28;20005;-87
2022/02/28 07:57:32;;;;;;;;;;;8.60;99.90;;;;;;4936115;28;19926;-88
2022/02/28 07:59:58;;;;;;;;;;;8.60;99.90;;;;;;4953864;28;19914;-87
2022/02/28 08:02:24;;;;;;;;;;;8.70;99.90;;;;;;4968676;28;20414;-87
2022/02/28 08:04:50;;;;;;;;;;;8.70;99.90;;;;;;4972532;28;20378;-87
2022/02/28 08:07:16;;;;;;;;;;;8.80;99.90;;;;;;4954889;28;20000;-88
2022/02/28 08:09:41;;;;;;;;;;;8.90;99.90;;;;;;4972390;28;20045;-88
2022/02/28 08:12:07;;;;;;;;;;;8.90;99.90;;;;;;4941579;28;19925;-87
2022/02/28 08:14:32;;;;;;;;;;;8.80;99.90;;;;;;4936087;28;19932;-87
2022/02/28 08:16:58;;;;;;;;;;;8.70;99.90;;;;;;4935926;28;19918;-87
2022/02/28 08:19:24;;;;;;;;;;;8.80;99.90;;;;;;4952756;28;20431;-88
2022/02/28 08:21:49;;;;;;;;;;;8.80;99.90;;;;;;4953278;28;19910;-87
2022/02/28 08:24:15;;;;;;;;;;;8.90;99.90;;;;;;4951847;28;19917;-87
2022/02/28 08:26:40;;;;;;;;;;;9.00;99.90;;;;;;4935712;29;19914;-87
2022/02/28 08:29:06;;;;;;;;;;;9.10;99.90;;;;;;4953192;28;19962;-87
2022/02/28 08:31:32;;;;;;;;;;;9.10;99.90;;;;;;4952673;28;19918;-87
2022/02/28 08:33:57;;;;;;;;;;;9.20;99.90;;;;;;4952890;28;20316;-87
2022/02/28 08:36:23;;;;;;;;;;;9.30;99.90;;;;;;4935803;29;19914;-87
2022/02/28 08:38:50;;;;;;;;;;;9.40;99.90;;;;;;4946871;28;20279;-87
2022/02/28 08:41:15;;;;;;;;;;;9.50;99.90;;;;;;4969218;28;19942;-88
2022/02/28 08:43:41;;;;;;;;;;;9.40;99.90;;;;;;4964024;28;19960;-88
2022/02/28 08:46:08;;;;;;;;;;;9.50;99.90;;;;;;4945104;29;20398;-88
2022/02/28 08:48:34;;;;;;;;;;;9.50;99.90;;;;;;4935944;29;19930;-88
2022/02/28 08:51:00;;;;;;;;;;;9.30;99.90;;;;;;4952406;28;20040;-88
2022/02/28 08:53:26;;;;;;;;;;;9.40;99.90;;;;;;4971870;28;20418;-88
2022/02/28 08:55:51;;;;;;;;;;;9.40;99.90;;;;;;4971799;28;20279;-88
2022/02/28 08:58:17;;;;;;;;;;;9.40;99.90;;;;;;4971699;28;19964;-88
2022/02/28 09:00:43;;;;;;;;;;;9.50;99.90;;;;;;4972147;28;19925;-87
2022/02/28 09:03:09;;;;;;;;;;;9.60;99.90;;;;;;4970541;28;19934;-89
2022/02/28 09:05:35;;;;;;;;;;;9.60;99.90;;;;;;4953633;28;19961;-88
2022/02/28 09:08:00;;;;;;;;;;;9.70;99.90;;;;;;4949587;28;19910;-88
2022/02/28 09:10:26;;;;;;;;;;;9.80;99.90;;;;;;4971957;28;20409;-89
2022/02/28 09:12:52;;;;;;;;;;;9.90;99.90;;;;;;4947788;28;19910;-89
2022/02/28 09:15:18;;;;;;;;;;;10.00;99.90;;;;;;4953284;28;19911;-89
2022/02/28 09:17:45;;;;;;;;;;;10.10;99.90;;;;;;4965217;28;20332;-88
2022/02/28 09:20:11;;;;;;;;;;;10.20;99.90;;;;;;4959681;28;19957;-88
2022/02/28 09:22:37;;;;;;;;;;;10.30;99.90;;;;;;4972061;28;19917;-88
2022/02/28 09:25:03;;;;;;;;;;;10.40;99.90;;;;;;4971929;28;19910;-88
2022/02/28 09:27:29;;;;;;;;;;;10.40;99.90;;;;;;4964933;28;19916;-88
2022/02/28 09:29:54;;;;;;;;;;;10.40;99.90;;;;;;4968528;28;19954;-88
2022/02/28 09:32:20;;;;;;;;;;;10.40;99.90;;;;;;4970352;28;19915;-88
2022/02/28 09:34:46;;;;;;;;;;;10.60;99.90;;;;;;4973943;28;19930;-88
2022/02/28 09:37:11;;;;;;;;;;;10.70;99.90;;;;;;4979591;28;20350;-88
2022/02/28 09:39:37;;;;;;;;;;;10.80;99.90;;;;;;4994318;28;19898;-89
2022/02/28 09:42:04;;;;;;;;;;;10.90;99.90;;;;;;4994178;28;19937;-88
2022/02/28 09:44:30;;;;;;;;;;;11.10;99.90;;;;;;4978364;28;19910;-88
2022/02/28 09:46:56;;;;;;;;;;;11.20;99.90;;;;;;4966124;29;19911;-89
2022/02/28 09:49:21;;;;;;;;;;;11.30;99.90;;;;;;4976134;28;20396;-89
2022/02/28 09:51:47;;;;;;;;;;;11.40;99.90;;;;;;4974256;28;19923;-88
2022/02/28 09:54:13;;;;;;;;;;;11.30;99.90;;;;;;4976414;28;19997;-89
2022/02/28 09:56:38;;;;;;;;;;;11.30;99.90;;;;;;4974065;28;20001;-89
2022/02/28 09:59:04;;;;;;;;;;;11.30;99.90;;;;;;4977643;28;19903;-88
2022/02/28 10:01:30;;;;;;;;;;;11.50;99.90;;;;;;4989832;28;19909;-89
2022/02/28 10:03:55;;;;;;;;;;;11.50;99.90;;;;;;4973791;28;19925;-88
2022/02/28 10:06:21;;;;;;;;;;;11.70;99.90;;;;;;4968704;28;19922;-88
2022/02/28 10:08:50;;;;;;;;;;;11.80;99.90;;;;;;4978928;28;19925;-89
2022/02/28 10:11:26;;;;;;;;;;;11.80;99.90;;;;;;4990010;28;19941;-89
2022/02/28 10:13:52;;;;;;;;;;;11.80;99.90;;;;;;4990632;28;19899;-88
2022/02/28 10:16:28;;;;;;;;;;;11.80;99.90;;;;;;4977603;28;19911;-89
2022/02/28 10:18:53;;;;;;;;;;;11.70;99.90;;;;;;4976397;28;19914;-89
2022/02/28 10:21:33;;;;;;;;;;;11.80;99.90;;;;;;4959663;28;20292;-89
2022/02/28 10:23:59;;;;;;;;;;;11.90;99.90;;;;;;4958721;28;19911;-88
2022/02/28 10:26:24;;;;;;;;;;;12.00;99.90;;;;;;4958463;28;19925;-88
2022/02/28 10:29:02;;;;;;;;;;;11.90;99.90;;;;;;4969148;28;19914;-89
2022/02/28 10:31:28;;;;;;;;;;;12.00;99.90;;;;;;4976499;28;19925;-89
2022/02/28 10:33:55;;;;;;;;;;;12.00;99.90;;;;;;4975757;28;19914;-88
2022/02/28 10:36:23;;;;;;;;;;;12.00;99.90;;;;;;4975809;28;19944;-89
2022/02/28 10:38:50;;;;;;;;;;;12.10;99.90;;;;;;4975685;28;19911;-89
2022/02/28 10:41:22;;;;;;;;;;;12.10;99.90;;;;;;4973491;28;19910;-89
2022/02/28 10:43:51;;;;;;;;;;;12.10;99.90;;;;;;4972711;28;19910;-89
2022/02/28 10:46:17;;;;;;;;;;;12.20;99.90;;;;;;4956779;28;19910;-89
2022/02/28 10:48:57;;;;;;;;;;;12.40;99.90;;;;;;4955537;28;19917;-88
2022/02/28 10:51:23;;;;;;;;;;;12.40;99.90;;;;;;4955028;28;20017;-89
2022/02/28 10:54:06;;;;;;;;;;;12.50;99.90;;;;;;4959267;28;20009;-88
2022/02/28 10:56:52;;;;;;;;;;;12.60;99.90;;;;;;4973265;28;19917;-88
2022/02/28 10:59:18;;;;;;;;;;;12.50;99.90;;;;;;4970210;28;20336;-89
2022/02/28 11:01:44;;;;;;;;;;;12.50;99.90;;;;;;4970839;28;20037;-89
2022/02/28 11:04:10;;;;;;;;;;;12.60;99.90;;;;;;4946582;28;19942;-89
2022/02/28 11:06:36;;;;;;;;;;;12.60;99.90;;;;;;4955559;28;19922;-88
2022/02/28 11:09:03;;;;;;;;;;;12.70;99.90;;;;;;4954939;28;19910;-89
2022/02/28 11:11:29;;;;;;;;;;;12.60;99.90;;;;;;4954585;28;19925;-89
2022/02/28 11:13:54;;;;;;;;;;;12.40;99.90;;;;;;4954795;28;20298;-89
2022/02/28 11:16:20;;;;;;;;;;;12.30;99.90;;;;;;4937394;28;19911;-87
2022/02/28 11:18:47;;;;;;;;;;;12.10;99.90;;;;;;4954573;28;20347;-89
2022/02/28 11:21:13;;;;;;;;;;;12.00;99.90;;;;;;4944506;28;20004;-89
2022/02/28 11:23:40;;;;;;;;;;;11.90;99.90;;;;;;4972888;28;19964;-89
2022/02/28 11:26:05;;;;;;;;;;;11.90;99.90;;;;;;4955659;28;19973;-89
2022/02/28 11:28:31;;;;;;;;;;;11.90;99.90;;;;;;4972707;28;20346;-89
2022/02/28 11:31:25;;;;;;;;;;;12.00;99.90;;;;;;4972736;28;19925;-89
2022/02/28 11:34:03;;;;;;;;;;;12.00;99.90;;;;;;4942772;28;20399;-90
2022/02/28 11:36:44;;;;;;;;;;;12.10;99.90;;;;;;4955111;28;19965;-89
2022/02/28 11:39:11;;;;;;;;;;;12.30;99.90;;;;;;4954287;28;19918;-89
2022/02/28 11:41:36;;;;;;;;;;;12.50;99.90;;;;;;4953588;28;20450;-88
2022/02/28 11:44:02;;;;;;;;;;;12.90;99.90;;;;;;4964775;28;19910;-89
2022/02/28 11:46:29;;;;;;;;;;;13.20;99.90;;;;;;4972596;28;19910;-89
2022/02/28 11:48:56;;;;;;;;;;;13.30;99.90;;;;;;4955163;28;19910;-89
2022/02/28 11:51:35;;;;;;;;;;;13.30;99.90;;;;;;4962034;28;19918;-89
2022/02/28 11:54:08;;;;;;;;;;;13.30;99.90;;;;;;4976300;28;19977;-89
2022/02/28 11:56:36;;;;;;;;;;;13.30;99.90;;;;;;4971850;28;19961;-89
2022/02/28 11:59:02;;;;;;;;;;;13.30;99.90;;;;;;4972078;28;20252;-89
2022/02/28 12:01:35;;;;;;;;;;;13.40;99.90;;;;;;4970659;28;19957;-89
2022/02/28 12:04:07;;;;;;;;;;;13.30;99.90;;;;;;4954947;28;19917;-88
2022/02/28 12:06:51;;;;;;;;;;;13.30;99.90;;;;;;4971092;28;20295;-89
2022/02/28 12:09:38;;;;;;;;;;;13.50;99.90;;;;;;4967070;28;20408;-89
2022/02/28 12:12:15;;;;;;;;;;;13.70;99.90;;;;;;4959850;28;19989;-89
2022/02/28 12:14:56;;;;;;;;;;;13.90;99.90;;;;;;4966580;28;19933;-90
2022/02/28 12:17:31;;;;;;;;;;;14.10;99.90;;;;;;4953576;28;20379;-89
2022/02/28 12:20:11;;;;;;;;;;;14.30;99.90;;;;;;4953242;28;20347;-89
2022/02/28 12:23:09;;;;;;;;;;;14.20;99.90;;;;;;4951976;28;19957;-89
2022/02/28 12:25:38;;;;;;;;;;;14.20;99.90;;;;;;4954155;28;19910;-89
2022/02/28 12:28:16;;;;;;;;;;;14.50;99.90;;;;;;4953946;28;20411;-89
2022/02/28 12:30:45;;;;;;;;;;;14.50;99.90;;;;;;4954486;28;19914;-89
2022/02/28 12:33:14;;;;;;;;;;;14.50;99.90;;;;;;4970629;28;20330;-88
2022/02/28 12:35:48;;;;;;;;;;;14.40;99.90;;;;;;4971392;28;20013;-89
2022/02/28 12:38:14;;;;;;;;;;;14.40;99.90;;;;;;4973006;28;19965;-89
2022/02/28 12:40:46;;;;;;;;;;;14.40;99.90;;;;;;4965441;28;19914;-89
2022/02/28 12:43:14;;;;;;;;;;;14.50;99.90;;;;;;4936697;29;20367;-89
2022/02/28 12:45:40;;;;;;;;;;;14.60;99.90;;;;;;4954927;28;19922;-90
2022/02/28 12:48:06;;;;;;;;;;;14.70;99.90;;;;;;4953198;28;19917;-89
2022/02/28 12:50:31;;;;;;;;;;;14.90;99.90;;;;;;4935846;29;19927;-90
2022/02/28 12:52:57;;;;;;;;;;;14.90;99.90;;;;;;4958705;28;19910;-88
2022/02/28 12:55:22;;;;;;;;;;;15.10;99.90;;;;;;4971991;28;20302;-90
2022/02/28 12:57:48;;;;;;;;;;;15.10;99.90;;;;;;4954790;28;20062;-89
2022/02/28 13:00:14;;;;;;;;;;;15.10;99.90;;;;;;4972051;28;19910;-90
2022/02/28 13:02:39;;;;;;;;;;;15.10;99.90;;;;;;4971230;28;19926;-90
2022/02/28 13:05:05;;;;;;;;;;;15.00;99.90;;;;;;4969437;28;19921;-89
2022/02/28 13:07:34;;;;;;;;;;;14.90;99.90;;;;;;4954239;28;19917;-90
2022/02/28 13:09:59;;;;;;;;;;;14.80;99.90;;;;;;4938583;29;19914;-90
2022/02/28 13:12:26;;;;;;;;;;;15.00;99.90;;;;;;4952287;28;20288;-90
2022/02/28 13:14:55;;;;;;;;;;;14.80;99.90;;;;;;4953004;28;19910;-90
2022/02/28 13:17:23;;;;;;;;;;;14.90;99.90;;;;;;4935615;28;19910;-90
2022/02/28 13:19:49;;;;;;;;;;;14.80;99.90;;;;;;4955657;28;19914;-90
2022/02/28 13:22:21;;;;;;;;;;;15.00;99.90;;;;;;4969793;28;20457;-90
2022/02/28 13:24:47;;;;;;;;;;;15.20;99.90;;;;;;4971139;28;19907;-89
2022/02/28 13:27:13;;;;;;;;;;;15.50;99.90;;;;;;4955488;28;20385;-89
2022/02/28 13:29:39;;;;;;;;;;;15.60;99.90;;;;;;4935255;28;19922;-90
2022/02/28 13:32:06;;;;;;;;;;;15.70;99.90;;;;;;4952575;28;19982;-89
2022/02/28 13:34:32;;;;;;;;;;;15.70;99.90;;;;;;4954682;28;19929;-90
2022/02/28 13:37:00;;;;;;;;;;;15.80;99.90;;;;;;4954345;28;19914;-89
2022/02/28 13:39:27;;;;;;;;;;;16.00;99.90;;;;;;4935745;28;20021;-90
2022/02/28 13:41:53;;;;;;;;;;;16.00;99.90;;;;;;4966730;28;19910;-89
2022/02/28 13:44:20;;;;;;;;;;;16.00;99.90;;;;;;4970938;28;19910;-90
2022/02/28 13:46:52;;;;;;;;;;;15.80;99.90;;;;;;4939472;28;20029;-90
2022/02/28 13:49:18;;;;;;;;;;;16.00;99.90;;;;;;4952893;28;19911;-90
2022/02/28 13:51:44;;;;;;;;;;;16.00;99.90;;;;;;4953371;28;19919;-89
2022/02/28 13:54:11;;;;;;;;;;;16.10;99.90;;;;;;4969913;28;20009;-90
2022/02/28 13:56:37;;;;;;;;;;;16.10;99.90;;;;;;4935110;28;19910;-90
2022/02/28 13:59:08;;;;;;;;;;;16.00;99.90;;;;;;4952729;28;19911;-90
2022/02/28 14:01:34;;;;;;;;;;;16.00;99.90;;;;;;4952308;28;19910;-90
2022/02/28 14:04:00;;;;;;;;;;;16.20;99.90;;;;;;4948743;28;19917;-90
2022/02/28 14:06:26;;;;;;;;;;;16.40;99.90;;;;;;4953408;28;19910;-89
2022/02/28 14:08:51;;;;;;;;;;;16.60;99.90;;;;;;4964234;28;19958;-90
2022/02/28 14:11:26;;;;;;;;;;;16.70;99.90;;;;;;4952637;28;19919;-90
2022/02/28 14:13:52;;;;;;;;;;;16.80;99.90;;;;;;4960136;28;19910;-90
2022/02/28 14:16:22;;;;;;;;;;;16.80;99.90;;;;;;4959973;28;19915;-90
2022/02/28 14:19:12;;;;;;;;;;;16.70;99.90;;;;;;4956046;28;20366;-90
2022/02/28 14:21:50;;;;;;;;;;;16.60;99.90;;;;;;4960251;28;19918;-90
2022/02/28 14:24:17;;;;;;;;;;;16.40;99.90;;;;;;4974545;28;20001;-90